Time;durP1;ratioP1;P1;durP2;ratioP2;P2;SDS_P1;SDS_P2;PMS_P1;PMS_P2;Temp;Humidity;BMP_temperature;BMP_pressure;BME280_temperature;BME280_humidity;BME280_pressure;Samples;Min_cycle;Max_cycle;Signal;HPM_P1;HPM_P2
2023/09/05 00:08:58;;;;;;;192.15;130.95;;;25.90;99.90;;;;;;5111191;27;20483;-68
2023/09/05 00:11:25;;;;;;;189.88;128.27;;;26.50;99.90;;;;;;5110922;28;20052;-68
2023/09/05 00:13:52;;;;;;;206.82;138.38;;;26.50;99.90;;;;;;5110258;28;20031;-69
2023/09/05 00:16:18;;;;;;;205.88;139.73;;;26.40;99.90;;;;;;5110563;28;20024;-68
2023/09/05 00:18:45;;;;;;;218.98;141.98;;;26.30;99.90;;;;;;5110856;28;20024;-68
2023/09/05 00:21:15;;;;;;;213.77;136.82;;;26.30;99.90;;;;;;5110939;28;20073;-66
2023/09/05 00:23:41;;;;;;;182.77;128.95;;;26.30;99.90;;;;;;5110366;28;20023;-69
2023/09/05 00:26:08;;;;;;;194.75;128.82;;;26.30;99.90;;;;;;5110788;28;20080;-69
2023/09/05 00:28:34;;;;;;;183.00;126.30;;;26.30;99.90;;;;;;5110581;28;20031;-69
2023/09/05 00:31:01;;;;;;;183.40;124.47;;;26.30;99.90;;;;;;5109707;28;20115;-68
2023/09/05 00:33:31;;;;;;;193.50;127.60;;;26.40;99.90;;;;;;5110427;28;20020;-69
2023/09/05 00:35:57;;;;;;;177.88;122.10;;;26.40;99.90;;;;;;5103614;28;20465;-68
2023/09/05 00:38:24;;;;;;;188.02;123.85;;;26.40;99.90;;;;;;5109465;28;20500;-68
2023/09/05 00:40:51;;;;;;;187.15;124.88;;;26.50;99.90;;;;;;5110192;28;20028;-68
2023/09/05 00:43:19;;;;;;;186.23;127.60;;;26.50;99.90;;;;;;5110110;28;20145;-69
2023/09/05 00:45:52;;;;;;;183.52;125.82;;;26.60;99.90;;;;;;5110123;28;20031;-69
2023/09/05 00:48:23;;;;;;;178.73;124.90;;;26.50;99.90;;;;;;5110224;28;20103;-69
2023/09/05 00:50:51;;;;;;;173.75;121.45;;;26.60;99.90;;;;;;5110259;28;20027;-70
2023/09/05 00:53:18;;;;;;;175.65;118.10;;;26.70;99.90;;;;;;5109870;28;20058;-69
2023/09/05 00:55:44;;;;;;;156.73;107.18;;;26.80;99.90;;;;;;5109300;28;20022;-69
2023/09/05 00:58:12;;;;;;;163.65;108.95;;;26.90;99.90;;;;;;5109716;28;20442;-69
2023/09/05 01:00:39;;;;;;;160.50;107.88;;;27.00;99.90;;;;;;5109906;28;20073;-71
2023/09/05 01:03:06;;;;;;;156.98;104.40;;;27.00;99.90;;;;;;5104762;22;20060;-69
2023/09/05 01:05:36;;;;;;;166.93;108.80;;;27.10;99.90;;;;;;5069132;28;20024;-69
2023/09/05 01:08:08;;;;;;;165.77;115.18;;;27.20;99.90;;;;;;5065812;28;20135;-69
2023/09/05 01:10:52;;;;;;;154.85;107.55;;;27.20;99.90;;;;;;5055941;28;20025;-69
2023/09/05 01:13:25;;;;;;;168.93;112.32;;;27.30;99.90;;;;;;5055689;28;20372;-68
2023/09/05 01:15:52;;;;;;;161.52;111.60;;;27.40;99.90;;;;;;5055903;28;20523;-69
2023/09/05 01:18:18;;;;;;;165.23;110.53;;;27.40;99.90;;;;;;5055617;28;20025;-67
2023/09/05 01:21:04;;;;;;;154.35;107.35;;;27.50;99.90;;;;;;5055668;28;20033;-69
2023/09/05 01:23:38;;;;;;;179.00;127.53;;;27.60;99.90;;;;;;5055761;28;20013;-69
2023/09/05 01:26:05;;;;;;;168.52;109.13;;;27.60;99.90;;;;;;5055882;28;20029;-69
2023/09/05 01:28:35;;;;;;;158.23;107.32;;;27.70;99.90;;;;;;5055627;28;20056;-69
2023/09/05 01:31:02;;;;;;;167.23;107.47;;;27.80;99.90;;;;;;5054978;28;20051;-68
2023/09/05 01:33:29;;;;;;;145.48;93.25;;;27.90;99.90;;;;;;5055541;28;20025;-68
2023/09/05 01:35:55;;;;;;;137.45;93.05;;;28.00;99.90;;;;;;5055459;28;20094;-69
2023/09/05 01:38:22;;;;;;;133.20;89.45;;;28.00;99.90;;;;;;5055222;28;20490;-68
2023/09/05 01:40:48;;;;;;;128.35;85.07;;;28.10;99.90;;;;;;5055299;28;20021;-67
2023/09/05 01:43:16;;;;;;;128.10;84.68;;;28.20;99.90;;;;;;5055260;28;20017;-67
2023/09/05 01:45:42;;;;;;;122.38;81.40;;;28.30;99.90;;;;;;5055019;28;20386;-67
2023/09/05 01:48:09;;;;;;;122.82;79.43;;;28.40;99.90;;;;;;5055254;28;20133;-69
2023/09/05 01:50:36;;;;;;;129.02;81.90;;;28.40;99.90;;;;;;5055229;28;20059;-74
2023/09/05 01:53:02;;;;;;;120.05;80.15;;;28.50;99.90;;;;;;5055200;28;20052;-67
2023/09/05 01:55:29;;;;;;;105.47;68.55;;;28.60;99.90;;;;;;5055052;28;20056;-69
2023/09/05 01:57:55;;;;;;;98.00;66.40;;;28.60;99.90;;;;;;5062088;28;20050;-69
2023/09/05 02:00:22;;;;;;;98.00;66.93;;;28.70;99.90;;;;;;5075147;28;20021;-69
2023/09/05 02:02:48;;;;;;;93.22;61.45;;;28.80;99.90;;;;;;5075113;28;20123;-69
2023/09/05 02:05:15;;;;;;;95.07;64.35;;;28.90;99.90;;;;;;5075085;28;20526;-68
2023/09/05 02:07:42;;;;;;;89.90;60.22;;;28.90;99.90;;;;;;5075178;28;20106;-69
2023/09/05 02:10:09;;;;;;;96.35;62.75;;;29.00;99.90;;;;;;5075017;28;20016;-68
2023/09/05 02:12:37;;;;;;;78.20;55.60;;;29.10;99.90;;;;;;5075058;28;20028;-69
2023/09/05 02:15:04;;;;;;;91.40;60.13;;;29.10;99.90;;;;;;5074642;28;20028;-72
2023/09/05 02:17:31;;;;;;;91.28;58.00;;;29.20;99.90;;;;;;5074621;28;20070;-69
2023/09/05 02:19:58;;;;;;;90.85;60.10;;;29.30;99.90;;;;;;5073891;28;20060;-69
2023/09/05 02:22:24;;;;;;;94.25;63.83;;;29.40;99.90;;;;;;5073974;28;20024;-68
2023/09/05 02:24:51;;;;;;;92.38;59.25;;;29.40;99.90;;;;;;5072520;28;20028;-67
2023/09/05 02:27:17;;;;;;;98.10;63.15;;;29.50;99.90;;;;;;5066832;28;20024;-68
2023/09/05 02:29:51;;;;;;;87.32;58.60;;;29.60;99.90;;;;;;5066335;28;20023;-69
2023/09/05 02:32:17;;;;;;;96.07;59.58;;;29.60;99.90;;;;;;5063114;28;20020;-68
2023/09/05 02:34:50;;;;;;;107.38;63.38;;;29.70;99.90;;;;;;5064549;28;20048;-69
2023/09/05 02:37:17;;;;;;;94.00;58.00;;;29.80;99.90;;;;;;5064808;28;20043;-69
2023/09/05 02:39:43;;;;;;;106.55;60.10;;;29.90;99.90;;;;;;5063545;28;20024;-68
2023/09/05 02:42:10;;;;;;;97.35;60.45;;;29.90;99.90;;;;;;5063571;28;20017;-67
2023/09/05 02:44:36;;;;;;;110.13;64.25;;;30.00;99.90;;;;;;5067224;28;20047;-66
2023/09/05 02:47:03;;;;;;;104.03;62.97;;;29.90;99.90;;;;;;5068849;28;20499;-67
2023/09/05 02:49:30;;;;;;;119.32;68.70;;;29.90;99.90;;;;;;5065166;28;20433;-67
2023/09/05 02:51:59;;;;;;;120.47;71.22;;;30.00;99.90;;;;;;5064613;28;20382;-72
2023/09/05 02:54:28;;;;;;;111.57;71.32;;;30.10;99.90;;;;;;5062984;28;20048;-70
2023/09/05 02:56:55;;;;;;;123.72;73.55;;;30.20;99.90;;;;;;5061675;28;20075;-68
2023/09/05 02:59:22;;;;;;;130.50;77.22;;;30.20;99.90;;;;;;5063812;28;20410;-67
2023/09/05 03:01:49;;;;;;;128.63;73.03;;;30.30;99.90;;;;;;5062154;28;20140;-68
2023/09/05 03:04:15;;;;;;;119.20;73.78;;;30.30;99.90;;;;;;5061451;28;20025;-72
2023/09/05 03:06:42;;;;;;;117.82;67.95;;;30.40;99.90;;;;;;5063671;28;20103;-71
2023/09/05 03:09:09;;;;;;;136.52;76.93;;;30.40;99.90;;;;;;5063272;28;20119;-71
2023/09/05 03:11:35;;;;;;;130.98;75.25;;;30.40;99.90;;;;;;5062154;28;20102;-70
2023/09/05 03:14:02;;;;;;;130.40;77.25;;;30.30;99.90;;;;;;5063674;28;20070;-73
2023/09/05 03:16:28;;;;;;;127.55;74.97;;;30.30;99.90;;;;;;5068676;28;20505;-72
2023/09/05 03:18:59;;;;;;;124.18;73.20;;;30.30;99.90;;;;;;5072316;28;20032;-71
2023/09/05 03:21:27;;;;;;;135.48;76.97;;;30.30;99.90;;;;;;5073589;28;20024;-69
2023/09/05 03:23:53;;;;;;;129.88;74.30;;;30.40;99.90;;;;;;5073097;28;20118;-70
2023/09/05 03:26:20;;;;;;;128.27;73.18;;;30.50;99.90;;;;;;5073307;28;20024;-71
2023/09/05 03:28:47;;;;;;;119.55;72.15;;;30.60;99.90;;;;;;5073232;28;20035;-70
2023/09/05 03:31:14;;;;;;;134.65;78.63;;;30.80;99.90;;;;;;5072859;28;20024;-71
2023/09/05 03:33:41;;;;;;;140.68;80.00;;;30.80;99.90;;;;;;5073266;28;20024;-73
2023/09/05 03:36:09;;;;;;;136.50;78.68;;;30.70;99.90;;;;;;5061757;28;20035;-71
2023/09/05 03:38:35;;;;;;;138.43;80.07;;;30.80;99.90;;;;;;5052952;28;20037;-72
2023/09/05 03:41:02;;;;;;;154.73;84.97;;;30.90;99.90;;;;;;5068807;28;20429;-72
2023/09/05 03:43:28;;;;;;;163.52;92.72;;;30.90;99.90;;;;;;5073101;28;20074;-71
2023/09/05 03:45:55;;;;;;;161.68;92.78;;;30.90;99.90;;;;;;5073350;28;20020;-72
2023/09/05 03:48:22;;;;;;;152.70;89.03;;;31.00;99.90;;;;;;5072802;28;20032;-71
2023/09/05 03:50:48;;;;;;;172.60;88.80;;;31.10;99.90;;;;;;5073323;28;20108;-71
2023/09/05 03:53:15;;;;;;;156.68;89.75;;;31.10;99.90;;;;;;5073361;28;20048;-71
2023/09/05 03:55:42;;;;;;;994.25;497.20;;;31.30;99.90;;;;;;5073529;28;20055;-69
2023/09/05 03:58:11;;;;;;;394.02;209.38;;;31.30;99.90;;;;;;5073265;28;20048;-71
2023/09/05 04:00:37;;;;;;;145.88;82.93;;;31.30;99.90;;;;;;5067533;28;20024;-70
2023/09/05 04:03:04;;;;;;;145.95;82.50;;;31.40;99.90;;;;;;5064176;28;20036;-71
2023/09/05 04:05:33;;;;;;;136.45;77.18;;;31.40;99.90;;;;;;5063078;28;20013;-70
2023/09/05 04:08:00;;;;;;;120.97;70.55;;;31.50;99.90;;;;;;5061560;28;20044;-69
2023/09/05 04:10:26;;;;;;;124.95;69.43;;;31.50;99.90;;;;;;5063859;28;20024;-70
2023/09/05 04:12:53;;;;;;;121.18;64.38;;;31.60;99.90;;;;;;5063242;28;20017;-67
2023/09/05 04:15:21;;;;;;;84.70;46.03;;;31.70;99.90;;;;;;5061573;28;20021;-67
2023/09/05 04:17:50;;;;;;;72.65;42.42;;;31.80;99.90;;;;;;5062527;28;20024;-70
2023/09/05 04:20:18;;;;;;;70.95;45.97;;;31.80;99.90;;;;;;5064730;28;20496;-68
2023/09/05 04:22:45;;;;;;;62.53;38.28;;;31.80;99.90;;;;;;5073011;28;20433;-70
2023/09/05 04:25:11;;;;;;;50.80;33.78;;;31.80;99.90;;;;;;5073095;28;20070;-72
2023/09/05 04:27:38;;;;;;;47.33;31.50;;;31.90;99.90;;;;;;5073103;28;20020;-71
2023/09/05 04:30:06;;;;;;;45.97;30.50;;;31.90;99.90;;;;;;5072762;28;20035;-70
2023/09/05 04:32:34;;;;;;;43.47;29.50;;;31.90;99.90;;;;;;5080986;28;20478;-67
2023/09/05 04:35:03;;;;;;;42.50;29.20;;;32.00;99.90;;;;;;5072722;28;20115;-70
2023/09/05 04:37:29;;;;;;;42.03;27.27;;;32.20;99.90;;;;;;5072670;28;20075;-71
2023/09/05 04:39:56;;;;;;;36.42;25.40;;;32.30;99.90;;;;;;5073162;28;20171;-70
2023/09/05 04:42:25;;;;;;;47.55;26.40;;;32.30;99.90;;;;;;5072222;28;20306;-70
2023/09/05 04:44:52;;;;;;;33.88;24.73;;;32.30;99.90;;;;;;5075362;28;20111;-71
2023/09/05 04:47:29;;;;;;;37.47;24.08;;;32.30;99.90;;;;;;5076602;28;20097;-70
2023/09/05 04:49:58;;;;;;;33.17;22.90;;;32.20;99.90;;;;;;5075608;28;20031;-70
2023/09/05 04:52:26;;;;;;;34.88;23.73;;;32.10;99.90;;;;;;5056457;28;20120;-70
2023/09/05 04:54:55;;;;;;;31.45;22.67;;;32.00;99.90;;;;;;5070080;28;20074;-71
2023/09/05 04:57:21;;;;;;;32.33;23.52;;;31.90;99.90;;;;;;5076229;28;20060;-70
2023/09/05 04:59:48;;;;;;;37.22;24.75;;;32.00;99.90;;;;;;5084179;28;20020;-69
2023/09/05 05:02:15;;;;;;;36.92;24.23;;;32.00;99.90;;;;;;5096512;28;20089;-69
2023/09/05 05:04:43;;;;;;;32.15;21.67;;;32.10;99.90;;;;;;5096557;28;20050;-69
2023/09/05 05:07:10;;;;;;;30.10;21.27;;;32.20;99.90;;;;;;5096451;28;20028;-69
2023/09/05 05:09:39;;;;;;;34.08;22.52;;;32.30;99.90;;;;;;5096786;28;20024;-69
2023/09/05 05:12:06;;;;;;;29.17;21.98;;;32.30;99.90;;;;;;5077428;28;20037;-66
2023/09/05 05:14:33;;;;;;;29.27;23.88;;;32.30;99.90;;;;;;5055868;28;20037;-66
2023/09/05 05:17:00;;;;;;;32.47;23.08;;;32.30;99.90;;;;;;5062639;28;20040;-65
2023/09/05 05:19:26;;;;;;;35.05;25.13;;;32.30;99.90;;;;;;5064480;28;20359;-65
2023/09/05 05:21:53;;;;;;;34.65;24.42;;;32.30;99.90;;;;;;5064522;28;20024;-64
2023/09/05 05:24:20;;;;;;;37.25;27.58;;;32.40;99.90;;;;;;5065467;28;20471;-64
2023/09/05 05:26:47;;;;;;;35.25;26.65;;;32.50;99.90;;;;;;5068576;28;20131;-65
2023/09/05 05:29:13;;;;;;;40.78;28.35;;;32.60;99.90;;;;;;5074346;28;20394;-66
2023/09/05 05:31:40;;;;;;;40.97;29.50;;;32.60;99.80;;;;;;5075743;28;20025;-66
2023/09/05 05:34:07;;;;;;;34.92;28.27;;;32.70;98.90;;;;;;5075482;28;20020;-66
2023/09/05 05:36:34;;;;;;;42.40;30.13;;;32.70;99.50;;;;;;5075869;28;20107;-65
2023/09/05 05:39:02;;;;;;;54.67;34.15;;;32.70;99.20;;;;;;5077009;28;20024;-66
2023/09/05 05:41:29;;;;;;;50.97;34.40;;;32.60;98.60;;;;;;5075973;28;20032;-63
2023/09/05 05:43:56;;;;;;;53.35;34.78;;;32.60;98.70;;;;;;5075171;28;20155;-65
2023/09/05 05:46:22;;;;;;;41.92;32.80;;;32.70;98.00;;;;;;5067938;28;20063;-67
2023/09/05 05:48:49;;;;;;;47.17;35.80;;;32.70;98.10;;;;;;5070625;28;20375;-67
2023/09/05 05:51:16;;;;;;;55.10;38.75;;;32.70;98.40;;;;;;5066480;28;20021;-66
2023/09/05 05:53:42;;;;;;;49.42;36.20;;;32.70;98.20;;;;;;5065198;28;20021;-66
2023/09/05 05:56:12;;;;;;;51.63;37.30;;;32.80;98.40;;;;;;5069050;28;20028;-68
2023/09/05 05:58:39;;;;;;;60.53;39.45;;;33.00;98.10;;;;;;5069697;28;20031;-67
2023/09/05 06:01:07;;;;;;;60.63;42.42;;;33.10;98.20;;;;;;5065051;28;20051;-66
2023/09/05 06:03:35;;;;;;;56.78;42.35;;;33.00;98.70;;;;;;5065012;28;20505;-65
2023/09/05 06:06:03;;;;;;;57.08;42.95;;;33.00;98.40;;;;;;5064202;28;20395;-70
2023/09/05 06:08:30;;;;;;;64.38;44.92;;;33.00;98.50;;;;;;5063386;28;20036;-67
2023/09/05 06:10:57;;;;;;;56.50;43.55;;;33.00;98.20;;;;;;5063171;28;20055;-67
2023/09/05 06:13:24;;;;;;;62.92;42.78;;;32.90;98.20;;;;;;5064291;28;20371;-68
2023/09/05 06:15:51;;;;;;;60.70;42.78;;;32.90;98.00;;;;;;5063172;28;20383;-65
2023/09/05 06:18:18;;;;;;;69.68;48.33;;;33.00;98.00;;;;;;5064129;28;20067;-71
2023/09/05 06:20:45;;;;;;;69.55;49.75;;;33.00;98.20;;;;;;5069606;28;20490;-69
2023/09/05 06:23:11;;;;;;;60.70;44.03;;;33.00;98.30;;;;;;5062641;28;20104;-70
2023/09/05 06:25:38;;;;;;;56.90;39.83;;;33.00;97.80;;;;;;5062326;28;20078;-70
2023/09/05 06:28:05;;;;;;;54.78;39.78;;;32.90;97.30;;;;;;5062771;28;20036;-69
2023/09/05 06:30:32;;;;;;;54.85;39.47;;;32.90;97.40;;;;;;5063446;28;20433;-71
2023/09/05 06:32:58;;;;;;;47.85;34.70;;;32.90;96.70;;;;;;5063255;28;20029;-68
2023/09/05 06:35:26;;;;;;;46.10;33.70;;;33.00;97.20;;;;;;5062656;28;20039;-71
2023/09/05 06:37:55;;;;;;;48.78;33.17;;;33.00;97.20;;;;;;5062494;28;20087;-71
2023/09/05 06:40:23;;;;;;;58.75;42.53;;;33.00;96.70;;;;;;5063283;28;20013;-69
2023/09/05 06:42:52;;;;;;;63.65;43.33;;;32.90;97.40;;;;;;5072480;28;20043;-71
2023/09/05 06:45:19;;;;;;;53.15;35.55;;;33.00;97.30;;;;;;5066722;28;20047;-70
2023/09/05 06:47:46;;;;;;;47.10;34.42;;;33.10;96.90;;;;;;5063425;28;20074;-70
2023/09/05 06:50:12;;;;;;;47.05;32.70;;;33.20;97.00;;;;;;5079097;28;20394;-70
2023/09/05 06:52:39;;;;;;;48.97;33.85;;;33.20;96.30;;;;;;5073714;28;20056;-71
2023/09/05 06:55:05;;;;;;;46.15;33.80;;;33.20;96.60;;;;;;5073426;28;20471;-69
2023/09/05 06:57:32;;;;;;;50.80;32.88;;;33.30;96.70;;;;;;5073531;28;20067;-71
2023/09/05 06:59:59;;;;;;;52.35;31.42;;;33.30;96.70;;;;;;5073751;28;20048;-71
2023/09/05 07:02:25;;;;;;;44.17;30.23;;;33.20;96.10;;;;;;5072825;28;20076;-70
2023/09/05 07:04:52;;;;;;;40.65;30.85;;;33.10;96.00;;;;;;5073066;28;20017;-70
2023/09/05 07:07:20;;;;;;;42.70;31.48;;;33.10;96.10;;;;;;5073180;28;20391;-71
2023/09/05 07:09:46;;;;;;;46.17;31.33;;;33.10;95.70;;;;;;5073759;28;20048;-71
2023/09/05 07:12:13;;;;;;;44.50;30.80;;;33.20;95.50;;;;;;5073600;28;20074;-71
2023/09/05 07:14:39;;;;;;;45.30;32.05;;;33.30;95.20;;;;;;5073559;28;20501;-71
2023/09/05 07:17:07;;;;;;;49.20;32.28;;;33.40;94.80;;;;;;5073830;28;20032;-67
2023/09/05 07:19:33;;;;;;;46.72;33.60;;;33.50;94.90;;;;;;5073875;28;20039;-66
2023/09/05 07:22:00;;;;;;;55.97;32.75;;;33.50;94.60;;;;;;5073371;28;20471;-66
2023/09/05 07:24:26;;;;;;;54.35;35.53;;;33.50;94.80;;;;;;5074151;28;20028;-66
2023/09/05 07:26:53;;;;;;;54.30;35.05;;;33.50;94.20;;;;;;5073848;28;20023;-66
2023/09/05 07:29:20;;;;;;;52.85;33.60;;;33.50;94.20;;;;;;5073696;28;20036;-66
2023/09/05 07:31:47;;;;;;;56.70;35.72;;;33.50;94.30;;;;;;5073730;28;20421;-66
2023/09/05 07:34:14;;;;;;;45.38;35.47;;;33.40;93.70;;;;;;5073476;28;20070;-67
2023/09/05 07:36:40;;;;;;;52.50;35.95;;;33.30;93.80;;;;;;5073564;28;20021;-66
2023/09/05 07:39:09;;;;;;;48.53;35.67;;;33.40;94.10;;;;;;5073342;28;20031;-66
2023/09/05 07:41:38;;;;;;;52.25;35.78;;;33.30;94.10;;;;;;5073112;28;20025;-66
2023/09/05 07:44:05;;;;;;;50.00;33.53;;;33.30;93.90;;;;;;5073248;28;20078;-66
2023/09/05 07:46:31;;;;;;;55.92;37.65;;;33.30;93.80;;;;;;5073034;28;20024;-67
2023/09/05 07:49:00;;;;;;;69.07;41.65;;;33.30;93.90;;;;;;5073124;28;20074;-67
2023/09/05 07:51:29;;;;;;;61.38;44.95;;;33.40;94.20;;;;;;5072962;28;20029;-69
2023/09/05 07:54:07;;;;;;;69.95;44.38;;;33.50;94.30;;;;;;5073088;28;20021;-74
2023/09/05 07:56:34;;;;;;;55.42;40.85;;;33.50;94.40;;;;;;5073067;28;20021;-70
2023/09/05 07:59:00;;;;;;;71.63;43.78;;;33.50;94.60;;;;;;5072958;28;20017;-69
2023/09/05 08:01:27;;;;;;;58.28;39.70;;;33.40;94.10;;;;;;5072882;28;20108;-70
2023/09/05 08:03:53;;;;;;;73.72;47.00;;;33.40;94.00;;;;;;5073062;28;20020;-71
2023/09/05 08:06:20;;;;;;;59.92;41.78;;;33.30;94.10;;;;;;5073222;28;20386;-71
2023/09/05 08:08:47;;;;;;;76.40;44.30;;;33.30;93.80;;;;;;5072723;28;20027;-69
2023/09/05 08:11:14;;;;;;;62.67;41.70;;;33.30;93.80;;;;;;5072961;28;20024;-71
2023/09/05 08:13:40;;;;;;;63.70;42.03;;;33.30;93.70;;;;;;5073008;28;20029;-69
2023/09/05 08:16:13;;;;;;;75.93;49.40;;;33.30;93.70;;;;;;5073211;28;20035;-68
2023/09/05 08:18:40;;;;;;;77.13;52.95;;;33.30;93.50;;;;;;5074723;28;20036;-70
2023/09/05 08:21:07;;;;;;;74.57;54.35;;;33.30;94.20;;;;;;5077805;28;20089;-71
2023/09/05 08:23:33;;;;;;;86.38;58.35;;;33.30;94.20;;;;;;5077376;28;20065;-71
2023/09/05 08:26:00;;;;;;;96.10;60.75;;;33.30;94.40;;;;;;5077111;28;20027;-71
2023/09/05 08:28:32;;;;;;;83.22;57.67;;;33.20;94.50;;;;;;5077421;28;20025;-70
2023/09/05 08:31:01;;;;;;;74.82;56.42;;;33.30;94.30;;;;;;5082370;28;20021;-67
2023/09/05 08:33:29;;;;;;;75.38;56.00;;;33.20;94.60;;;;;;5076963;28;20040;-71
2023/09/05 08:35:55;;;;;;;79.32;53.72;;;33.20;94.40;;;;;;5077506;28;20378;-67
2023/09/05 08:38:22;;;;;;;91.28;53.72;;;33.20;93.70;;;;;;5076111;28;20033;-68
2023/09/05 08:40:48;;;;;;;74.20;53.38;;;33.20;94.60;;;;;;5076902;28;20024;-68
2023/09/05 08:43:17;;;;;;;82.40;54.78;;;33.20;94.80;;;;;;5075996;28;20016;-65
2023/09/05 08:45:45;;;;;;;67.20;50.75;;;33.20;94.20;;;;;;5074462;28;20040;-68
2023/09/05 08:48:12;;;;;;;78.25;55.42;;;33.10;95.00;;;;;;5075147;28;20563;-66
2023/09/05 08:50:41;;;;;;;82.03;60.42;;;33.20;95.00;;;;;;5074253;28;20062;-67
2023/09/05 08:53:14;;;;;;;92.85;62.70;;;33.20;95.20;;;;;;5075760;28;20028;-68
2023/09/05 08:55:44;;;;;;;83.22;60.92;;;33.10;94.30;;;;;;5073513;28;20035;-67
2023/09/05 08:58:15;;;;;;;92.20;62.90;;;33.00;94.40;;;;;;5074474;28;20020;-68
2023/09/05 09:00:44;;;;;;;84.03;58.80;;;33.00;94.40;;;;;;5075568;28;20518;-68
2023/09/05 09:03:11;;;;;;;84.93;58.50;;;33.00;94.90;;;;;;5079960;28;20041;-67
2023/09/05 09:05:37;;;;;;;92.57;59.00;;;33.10;95.10;;;;;;5075891;28;20430;-67
2023/09/05 09:08:04;;;;;;;80.65;56.88;;;33.00;94.20;;;;;;5081394;28;20071;-68
2023/09/05 09:10:31;;;;;;;81.40;56.85;;;33.00;94.70;;;;;;5075712;28;20419;-68
2023/09/05 09:13:24;;;;;;;87.65;57.80;;;33.00;94.80;;;;;;5075751;28;20042;-67
2023/09/05 09:15:52;;;;;;;93.05;59.53;;;33.00;94.90;;;;;;5067953;28;20025;-67
2023/09/05 09:18:20;;;;;;;71.93;47.83;;;33.00;94.60;;;;;;5063443;28;20036;-67
2023/09/05 09:20:50;;;;;;;78.20;47.58;;;32.90;94.80;;;;;;5065139;28;20056;-67
2023/09/05 09:23:26;;;;;;;83.82;52.47;;;32.90;95.10;;;;;;5065465;28;20021;-68
2023/09/05 09:25:54;;;;;;;82.72;55.35;;;32.90;95.00;;;;;;5064788;28;20021;-68
2023/09/05 09:28:28;;;;;;;82.95;55.08;;;32.90;95.00;;;;;;5063460;28;20032;-68
2023/09/05 09:30:59;;;;;;;89.55;59.58;;;32.80;95.60;;;;;;5062961;28;20467;-69
2023/09/05 09:33:26;;;;;;;92.57;61.92;;;32.80;95.70;;;;;;5062640;28;20040;-68
2023/09/05 09:36:04;;;;;;;90.97;65.30;;;32.70;95.80;;;;;;5071094;28;20429;-66
2023/09/05 09:38:32;;;;;;;115.05;77.35;;;32.80;96.10;;;;;;5068441;28;20452;-67
2023/09/05 09:41:01;;;;;;;112.68;75.22;;;32.70;95.50;;;;;;5065946;28;20029;-68
2023/09/05 09:43:29;;;;;;;105.20;72.90;;;32.50;95.90;;;;;;5064423;28;20013;-67
2023/09/05 09:46:00;;;;;;;109.22;76.55;;;32.60;96.00;;;;;;5071966;28;20549;-68
2023/09/05 09:48:29;;;;;;;95.57;69.30;;;32.50;95.70;;;;;;5065367;28;20428;-68
2023/09/05 09:50:58;;;;;;;99.30;69.70;;;32.40;96.10;;;;;;5064752;28;20047;-71
2023/09/05 09:53:34;;;;;;;94.05;65.65;;;32.40;96.10;;;;;;5073113;28;20060;-71
2023/09/05 09:56:05;;;;;;;104.38;66.10;;;32.40;96.30;;;;;;5065297;28;20024;-70
2023/09/05 09:58:32;;;;;;;96.25;63.58;;;32.40;96.10;;;;;;5064317;28;20090;-71
2023/09/05 10:01:01;;;;;;;89.70;62.65;;;32.40;96.40;;;;;;5066371;28;20024;-71
2023/09/05 10:03:28;;;;;;;89.75;58.05;;;32.40;96.60;;;;;;5066857;28;20073;-69
2023/09/05 10:05:57;;;;;;;101.82;62.15;;;32.40;96.50;;;;;;5067853;28;20035;-69
2023/09/05 10:08:25;;;;;;;83.18;57.72;;;32.40;96.50;;;;;;5063614;28;20060;-69
2023/09/05 10:10:54;;;;;;;76.60;51.95;;;32.40;96.70;;;;;;5069623;28;20054;-69
2023/09/05 10:13:25;;;;;;;83.15;52.45;;;32.40;96.50;;;;;;5065267;28;20040;-69
2023/09/05 10:15:55;;;;;;;84.55;51.92;;;32.30;97.00;;;;;;5067139;28;20416;-68
2023/09/05 10:18:22;;;;;;;77.95;49.92;;;32.30;96.60;;;;;;5067653;28;20029;-69
2023/09/05 10:20:51;;;;;;;78.00;49.10;;;32.20;97.20;;;;;;5065535;28;20058;-70
2023/09/05 10:23:19;;;;;;;72.05;43.92;;;32.10;97.20;;;;;;5062701;28;20036;-70
2023/09/05 10:25:48;;;;;;;75.55;47.65;;;32.10;97.30;;;;;;5063046;28;20029;-68
2023/09/05 10:28:14;;;;;;;68.55;47.08;;;32.10;97.00;;;;;;5063245;28;20017;-69
2023/09/05 10:30:45;;;;;;;75.25;47.97;;;32.00;97.10;;;;;;5064526;28;20031;-69
2023/09/05 10:33:14;;;;;;;68.00;47.72;;;32.00;97.40;;;;;;5063788;28;20021;-69
2023/09/05 10:35:45;;;;;;;77.68;49.75;;;31.90;97.70;;;;;;5062421;28;20025;-70
2023/09/05 10:38:14;;;;;;;81.18;52.55;;;31.90;97.90;;;;;;5063556;28;20034;-69
2023/09/05 10:40:41;;;;;;;78.55;45.78;;;31.90;97.80;;;;;;5067121;28;20033;-69
2023/09/05 10:43:14;;;;;;;92.97;47.45;;;31.80;97.70;;;;;;5063241;28;20360;-70
2023/09/05 10:45:41;;;;;;;67.63;43.75;;;31.70;98.30;;;;;;5067772;28;20440;-70
2023/09/05 10:48:09;;;;;;;69.20;45.50;;;31.70;98.70;;;;;;5066528;28;20053;-69
2023/09/05 10:51:06;;;;;;;69.78;45.90;;;31.70;98.40;;;;;;5067436;28;20037;-69
2023/09/05 10:53:34;;;;;;;70.60;41.88;;;31.60;98.60;;;;;;5066194;28;20032;-70
2023/09/05 10:56:01;;;;;;;59.03;39.47;;;31.60;98.70;;;;;;5064173;28;20107;-70
2023/09/05 10:58:42;;;;;;;64.78;41.25;;;31.50;98.50;;;;;;5066667;28;20032;-70
2023/09/05 11:01:31;;;;;;;63.10;40.60;;;31.40;98.90;;;;;;5062898;28;20025;-70
2023/09/05 11:04:03;;;;;;;62.40;40.50;;;31.40;99.10;;;;;;5055738;28;20033;-67
2023/09/05 11:06:33;;;;;;;68.60;42.25;;;31.30;99.20;;;;;;5065455;28;20076;-66
2023/09/05 11:09:06;;;;;;;61.53;41.40;;;31.30;99.40;;;;;;5066878;28;20028;-65
2023/09/05 11:11:36;;;;;;;66.45;43.55;;;31.30;99.40;;;;;;5065460;28;20020;-67
2023/09/05 11:14:04;;;;;;;73.13;43.85;;;31.30;99.20;;;;;;5066822;28;20379;-67
2023/09/05 11:16:52;;;;;;;68.22;44.03;;;31.30;99.50;;;;;;5063393;28;20025;-66
2023/09/05 11:19:40;;;;;;;59.72;40.55;;;31.30;99.90;;;;;;5066058;28;20462;-67
2023/09/05 11:22:11;;;;;;;57.53;39.65;;;31.20;99.80;;;;;;5061861;28;20437;-68
2023/09/05 11:24:46;;;;;;;69.20;41.60;;;31.10;99.90;;;;;;5062733;28;20155;-68
2023/09/05 11:27:16;;;;;;;71.40;43.40;;;31.10;99.90;;;;;;5061263;28;20113;-68
2023/09/05 11:29:45;;;;;;;71.05;44.25;;;31.00;99.90;;;;;;5064379;28;20027;-68
2023/09/05 11:32:14;;;;;;;70.55;45.13;;;31.00;99.90;;;;;;5063654;28;20036;-67
2023/09/05 11:34:46;;;;;;;68.75;42.90;;;30.90;99.90;;;;;;5073857;28;20101;-67
2023/09/05 11:37:17;;;;;;;64.13;42.53;;;30.90;99.90;;;;;;5073156;28;20056;-68
2023/09/05 11:39:45;;;;;;;61.67;41.42;;;30.90;99.90;;;;;;5073260;28;20020;-69
2023/09/05 11:42:23;;;;;;;62.40;37.65;;;30.80;99.90;;;;;;5073383;28;20028;-68
2023/09/05 11:44:53;;;;;;;61.17;36.63;;;30.90;99.90;;;;;;5073183;28;20063;-67
2023/09/05 11:47:22;;;;;;;57.40;36.85;;;30.80;99.90;;;;;;5072038;28;20036;-67
2023/09/05 11:49:50;;;;;;;56.85;36.60;;;30.80;99.90;;;;;;5068699;28;20063;-67
2023/09/05 11:52:18;;;;;;;57.97;40.03;;;30.70;99.90;;;;;;5073105;28;20469;-67
2023/09/05 11:54:47;;;;;;;52.90;35.67;;;30.60;99.90;;;;;;5073267;28;20028;-68
2023/09/05 11:57:17;;;;;;;63.30;37.13;;;30.60;99.90;;;;;;5088231;28;20029;-68
2023/09/05 11:59:44;;;;;;;52.53;35.95;;;30.60;99.90;;;;;;5062557;28;20024;-69
2023/09/05 12:02:15;;;;;;;51.60;35.40;;;30.60;99.90;;;;;;5064022;28;20044;-65
2023/09/05 12:04:42;;;;;;;51.50;34.58;;;30.60;99.90;;;;;;5062168;28;20092;-66
2023/09/05 12:07:09;;;;;;;60.03;36.35;;;30.50;99.90;;;;;;5064309;28;20027;-66
2023/09/05 12:09:35;;;;;;;57.25;35.38;;;30.50;99.90;;;;;;5063487;28;20099;-65
2023/09/05 12:12:13;;;;;;;56.75;34.17;;;30.50;99.90;;;;;;5061916;28;20021;-65
2023/09/05 12:15:00;;;;;;;62.55;38.60;;;30.50;99.90;;;;;;5061658;28;20025;-65
2023/09/05 12:17:27;;;;;;;64.15;40.83;;;30.50;99.90;;;;;;5062116;28;20451;-64
2023/09/05 12:19:55;;;;;;;63.67;40.17;;;30.40;99.90;;;;;;5066864;28;20017;-64
2023/09/05 12:22:29;;;;;;;66.15;41.97;;;30.40;99.90;;;;;;5078629;28;20025;-65
2023/09/05 12:25:16;;;;;;;71.30;44.60;;;30.40;99.90;;;;;;5093059;28;20012;-65
2023/09/05 12:27:44;;;;;;;69.10;43.88;;;30.40;99.90;;;;;;5092766;28;20111;-65
2023/09/05 12:30:32;;;;;;;66.47;43.15;;;30.30;99.90;;;;;;5093078;28;20098;-65
2023/09/05 12:33:01;;;;;;;60.78;39.38;;;30.20;99.90;;;;;;5089743;28;20040;-65
2023/09/05 12:35:30;;;;;;;69.00;40.78;;;30.20;99.90;;;;;;5061338;28;20028;-65
2023/09/05 12:37:58;;;;;;;74.30;41.75;;;30.20;99.90;;;;;;5062851;28;20463;-65